Booneville, North Carolina
Current Conditions -  °F | °C
As of 12:55 AM on Sunday 23 Nov 2014 (Local Time) from KMWK Reporting Station
Broken Clouds Broken Clouds  
Wind Chill: 34°   Ceiling: 4000
Heat Index: 34°   Visibility: 10mi
Dew Point: 25°   Wind: 3mph
Humidity: 71%   Direction: 20°NNE
Pressure: 30.29"   Gusts: NA
Location:  36.2374°N, 80.6343°W
Report Text: KMWK 230555Z AUTO 02003KT 10SM BKN040 01/M04 A3029 RMK AO2 T00091039 10067 20000 401031060
Loading
Personal Weather Stations






























Interactive Weather Map New forecast layout! Learn more

10-Day Weather Forecast

Advertisements
Track Severe Weather on mobile